Time;durP1;ratioP1;P1;durP2;ratioP2;P2;SDS_P1;SDS_P2;PMS_P1;PMS_P2;Temp;Humidity;BMP_temperature;BMP_pressure;BME280_temperature;BME280_humidity;BME280_pressure;Samples;Min_cycle;Max_cycle;Signal;HPM_P1;HPM_P2
2022/11/14 00:00:54;;;;;;;32.50;19.50;;;;;;;6.76;94.58;101285.98;103100;1294;60435;-76
2022/11/14 00:03:21;;;;;;;28.60;18.40;;;;;;;6.76;94.32;101288.90;103222;1299;60647;-75
2022/11/14 00:05:47;;;;;;;30.20;18.50;;;;;;;6.75;94.15;101288.98;103266;1299;60588;-76
2022/11/14 00:08:26;;;;;;;29.80;19.40;;;;;;;6.71;94.16;101286.20;103617;1297;61762;-75
2022/11/14 00:10:53;;;;;;;27.00;17.60;;;;;;;6.68;94.00;101281.17;102855;1291;71883;-75
2022/11/14 00:13:20;;;;;;;30.90;20.30;;;;;;;6.61;93.96;101271.99;103013;1290;60543;-77
2022/11/14 00:15:54;;;;;;;31.60;19.70;;;;;;;6.61;93.95;101269.52;103249;1300;60445;-76
2022/11/14 00:18:21;;;;;;;30.10;20.10;;;;;;;6.60;94.14;101271.66;103231;1302;72708;-77
2022/11/14 00:20:50;;;;;;;28.10;17.70;;;;;;;6.57;94.12;101272.45;103204;1301;70881;-77
2022/11/14 00:23:17;;;;;;;28.00;16.10;;;;;;;6.52;93.64;101268.89;102991;1295;73590;-77
2022/11/14 00:25:45;;;;;;;26.40;16.50;;;;;;;6.39;93.95;101265.27;103596;1293;60556;-77
2022/11/14 00:28:12;;;;;;;28.40;16.90;;;;;;;6.25;94.69;101260.67;103346;1299;60268;-77
2022/11/14 00:30:38;;;;;;;29.70;18.80;;;;;;;6.15;94.98;101256.10;103180;1301;72299;-75
2022/11/14 00:33:05;;;;;;;30.50;19.30;;;;;;;6.12;95.26;101250.05;102821;1299;63023;-74
2022/11/14 00:35:31;;;;;;;29.60;19.40;;;;;;;6.12;95.62;101253.50;103594;1295;60838;-77
2022/11/14 00:37:57;;;;;;;27.40;16.80;;;;;;;6.14;95.42;101252.84;103297;1292;60593;-78
2022/11/14 00:40:24;;;;;;;28.10;18.00;;;;;;;6.11;95.52;101251.27;103498;1299;60526;-77
2022/11/14 00:42:51;;;;;;;28.10;17.50;;;;;;;6.13;95.19;101252.91;103803;1299;60481;-77
2022/11/14 00:45:17;;;;;;;25.10;16.10;;;;;;;6.14;95.17;101250.52;103606;1285;61376;-78
2022/11/14 00:47:43;;;;;;;27.00;18.40;;;;;;;6.15;95.20;101251.23;103153;1293;60476;-78
2022/11/14 00:50:10;;;;;;;22.80;15.00;;;;;;;6.13;95.14;101254.52;103687;1295;60625;-78
2022/11/14 00:52:36;;;;;;;30.20;18.40;;;;;;;6.08;95.29;101247.87;103435;1296;60458;-78
2022/11/14 00:55:03;;;;;;;27.50;18.20;;;;;;;6.08;95.31;101243.66;103651;1293;60483;-77
2022/11/14 00:57:30;;;;;;;26.50;17.60;;;;;;;6.08;95.15;101235.95;103597;1301;60454;-76
2022/11/14 00:59:56;;;;;;;29.30;19.30;;;;;;;6.08;95.25;101233.18;103285;1285;60514;-76
2022/11/14 01:02:23;;;;;;;25.90;17.30;;;;;;;6.09;94.83;101237.09;103617;1294;60517;-77
2022/11/14 01:04:50;;;;;;;26.30;17.90;;;;;;;6.09;94.97;101234.81;103436;1295;60407;-77
2022/11/14 01:07:17;;;;;;;29.30;18.80;;;;;;;6.09;94.90;101237.08;103006;1294;73656;-75
2022/11/14 01:09:43;;;;;;;26.50;17.70;;;;;;;6.09;94.96;101234.45;103365;1295;68754;-76
2022/11/14 01:12:10;;;;;;;25.70;16.90;;;;;;;6.11;94.68;101232.69;102813;1301;60481;-76
2022/11/14 01:14:37;;;;;;;29.90;19.00;;;;;;;6.11;94.99;101228.16;103674;1291;62911;-76
2022/11/14 01:17:04;;;;;;;23.30;15.30;;;;;;;6.11;94.83;101228.12;103185;1294;60505;-76
2022/11/14 01:19:30;;;;;;;27.90;18.30;;;;;;;6.05;95.16;101225.02;103598;1287;59363;-75
2022/11/14 01:21:57;;;;;;;26.30;17.40;;;;;;;6.05;94.84;101224.81;103380;1293;60554;-74
2022/11/14 01:24:32;;;;;;;25.50;17.00;;;;;;;6.03;94.89;101218.83;103211;1290;72763;-76
2022/11/14 01:26:59;;;;;;;27.10;17.70;;;;;;;6.05;94.91;101210.79;102863;1294;60760;-76
2022/11/14 01:29:26;;;;;;;26.10;16.00;;;;;;;6.06;94.78;101208.21;103170;1299;60764;-77
2022/11/14 01:31:53;;;;;;;27.10;17.20;;;;;;;6.04;94.56;101203.13;103386;1294;73003;-76
2022/11/14 01:34:19;;;;;;;24.90;14.50;;;;;;;5.96;94.64;101202.04;103426;1299;60533;-76
2022/11/14 01:36:45;;;;;;;24.00;15.80;;;;;;;5.86;94.82;101197.78;103606;1291;60607;-77
2022/11/14 01:39:12;;;;;;;24.00;15.30;;;;;;;5.78;95.02;101200.05;103036;1300;60489;-76
2022/11/14 01:41:38;;;;;;;26.50;17.30;;;;;;;5.71;95.51;101204.83;103481;1298;60593;-77
2022/11/14 01:44:15;;;;;;;30.00;18.20;;;;;;;5.70;95.60;101204.77;103046;1303;60523;-76
2022/11/14 01:46:46;;;;;;;27.70;18.00;;;;;;;5.71;95.82;101202.34;103216;1291;69978;-77
2022/11/14 01:49:29;;;;;;;28.40;19.00;;;;;;;5.73;95.57;101200.98;103213;1285;72503;-75
2022/11/14 01:52:03;;;;;;;30.50;19.20;;;;;;;5.70;95.60;101192.30;104373;1289;60488;-76
2022/11/14 01:54:34;;;;;;;31.20;20.20;;;;;;;5.74;95.66;101185.98;103041;1300;60843;-76
2022/11/14 01:57:03;;;;;;;25.70;17.80;;;;;;;5.81;95.77;101181.39;103106;1300;71932;-76
2022/11/14 01:59:35;;;;;;;27.80;17.40;;;;;;;5.87;95.51;101177.89;103272;1294;69260;-75
2022/11/14 02:02:09;;;;;;;27.00;18.00;;;;;;;5.90;95.24;101171.84;103121;1300;71115;-75
2022/11/14 02:04:41;;;;;;;30.20;19.30;;;;;;;5.92;95.10;101171.16;102975;1302;60874;-76
2022/11/14 02:07:09;;;;;;;30.10;19.20;;;;;;;5.94;95.05;101165.72;103329;1287;60669;-76
2022/11/14 02:09:39;;;;;;;29.60;19.10;;;;;;;5.98;95.02;101162.59;104025;1292;74124;-75
2022/11/14 02:12:09;;;;;;;26.90;17.40;;;;;;;6.05;95.11;101160.89;103687;1299;69940;-75
2022/11/14 02:14:36;;;;;;;28.80;18.50;;;;;;;6.09;94.78;101164.75;102946;1296;70720;-76
2022/11/14 02:17:03;;;;;;;27.00;18.40;;;;;;;6.12;94.81;101163.07;103196;1284;60596;-75
2022/11/14 02:20:10;;;;;;;29.60;18.60;;;;;;;6.13;94.56;101161.05;103387;1298;60527;-76
2022/11/14 02:22:41;;;;;;;28.90;18.40;;;;;;;6.15;94.10;101160.04;103208;1299;73885;-76
2022/11/14 02:25:09;;;;;;;27.00;18.70;;;;;;;6.16;94.19;101159.75;102962;1296;72043;-75
2022/11/14 02:27:38;;;;;;;27.40;17.60;;;;;;;6.17;93.98;101161.14;103503;1297;72822;-76
2022/11/14 02:30:07;;;;;;;27.10;18.40;;;;;;;6.17;93.96;101161.51;103640;1300;60677;-76
2022/11/14 02:32:34;;;;;;;25.10;18.20;;;;;;;6.17;93.80;101159.18;103218;1293;60509;-76
2022/11/14 02:35:20;;;;;;;24.80;16.30;;;;;;;6.12;93.65;101155.17;102958;1299;74047;-76
2022/11/14 02:37:47;;;;;;;26.90;17.80;;;;;;;6.07;93.37;101157.37;103309;1293;60419;-76
2022/11/14 02:40:13;;;;;;;26.60;18.00;;;;;;;6.02;93.68;101156.08;102988;1302;61967;-77
2022/11/14 02:42:40;;;;;;;27.10;18.00;;;;;;;5.97;93.96;101156.66;103090;1301;60598;-77
2022/11/14 02:45:08;;;;;;;26.20;17.90;;;;;;;5.97;94.03;101148.79;103844;1299;60502;-76
2022/11/14 02:47:34;;;;;;;28.10;18.10;;;;;;;6.00;94.08;101142.93;104690;1286;72367;-76
2022/11/14 02:50:01;;;;;;;27.00;18.10;;;;;;;6.02;94.06;101137.68;104280;1285;69550;-77
2022/11/14 02:52:27;;;;;;;28.40;18.20;;;;;;;6.01;94.12;101138.40;103792;1304;59285;-77
2022/11/14 02:54:54;;;;;;;26.50;17.10;;;;;;;6.02;93.91;101138.00;103731;1292;61711;-76
2022/11/14 02:57:20;;;;;;;24.30;16.30;;;;;;;6.01;93.61;101135.29;103807;1298;60357;-76
2022/11/14 02:59:47;;;;;;;28.00;18.10;;;;;;;5.96;93.69;101132.90;103386;1302;72464;-77
2022/11/14 03:02:13;;;;;;;26.90;17.40;;;;;;;5.92;93.70;101126.70;103379;1300;60502;-76
2022/11/14 03:04:40;;;;;;;29.10;18.80;;;;;;;5.88;93.91;101121.38;103904;1296;60596;-78
2022/11/14 03:07:07;;;;;;;28.90;18.30;;;;;;;5.88;93.89;101125.67;104137;1291;60507;-75
2022/11/14 03:09:33;;;;;;;29.30;18.60;;;;;;;5.88;94.04;101124.77;103358;1293;60571;-80
2022/11/14 03:11:59;;;;;;;26.60;18.10;;;;;;;5.90;93.90;101121.48;103520;1292;60484;-77
2022/11/14 03:14:26;;;;;;;27.40;17.90;;;;;;;5.92;93.83;101120.36;103227;1301;60453;-76
2022/11/14 03:16:54;;;;;;;29.40;18.80;;;;;;;5.92;93.86;101121.23;103455;1294;60522;-77
2022/11/14 03:19:21;;;;;;;28.70;19.90;;;;;;;5.91;93.72;101113.98;103232;1285;60748;-77
2022/11/14 03:21:47;;;;;;;27.40;18.10;;;;;;;5.92;93.84;101115.97;103706;1298;59490;-77
2022/11/14 03:24:13;;;;;;;27.90;18.20;;;;;;;5.95;93.82;101117.15;103453;1289;60596;-78
2022/11/14 03:26:40;;;;;;;28.30;18.50;;;;;;;5.99;93.64;101112.80;103887;1297;60505;-74
2022/11/14 03:29:07;;;;;;;29.00;18.70;;;;;;;6.02;93.89;101114.10;102995;1293;60491;-76
2022/11/14 03:31:33;;;;;;;30.10;19.60;;;;;;;6.00;93.80;101109.20;103449;1293;60489;-75
2022/11/14 03:33:59;;;;;;;29.20;18.80;;;;;;;6.00;93.64;101112.86;103444;1293;60610;-76
2022/11/14 03:36:26;;;;;;;31.60;19.80;;;;;;;6.00;93.62;101110.56;103679;1299;60513;-75
2022/11/14 03:38:52;;;;;;;29.50;19.40;;;;;;;6.00;94.05;101110.25;103416;1284;60891;-75
2022/11/14 03:41:19;;;;;;;27.50;18.10;;;;;;;6.00;93.84;101108.67;103098;1300;60570;-75
2022/11/14 03:43:45;;;;;;;27.10;17.60;;;;;;;6.00;94.07;101106.42;103260;1299;59988;-76
2022/11/14 03:46:12;;;;;;;27.50;18.30;;;;;;;5.98;94.21;101107.65;103817;1294;60573;-76
2022/11/14 03:48:38;;;;;;;28.70;19.60;;;;;;;5.98;94.28;101098.48;103062;1299;60531;-75
2022/11/14 03:51:04;;;;;;;26.30;17.40;;;;;;;5.98;94.21;101097.94;102896;1296;60604;-75
2022/11/14 03:53:31;;;;;;;28.20;18.70;;;;;;;5.99;94.15;101095.04;103034;1290;60579;-76
2022/11/14 03:55:57;;;;;;;29.10;19.20;;;;;;;6.00;94.33;101089.69;104018;1283;60654;-75
2022/11/14 03:58:24;;;;;;;31.00;20.00;;;;;;;6.03;94.28;101088.89;104536;1300;58142;-76
2022/11/14 04:00:50;;;;;;;29.20;19.60;;;;;;;6.05;94.17;101080.11;104258;1293;61329;-76
2022/11/14 04:03:17;;;;;;;29.80;19.60;;;;;;;6.08;93.88;101073.73;104285;1292;60480;-76
2022/11/14 04:05:44;;;;;;;31.20;19.80;;;;;;;6.11;93.91;101068.02;104373;1284;60559;-76
2022/11/14 04:08:10;;;;;;;30.00;19.90;;;;;;;6.15;93.88;101058.91;103486;1295;61111;-75
2022/11/14 04:10:37;;;;;;;28.90;19.00;;;;;;;6.18;93.84;101048.13;103821;1292;60555;-76
2022/11/14 04:13:04;;;;;;;29.90;18.80;;;;;;;6.21;93.92;101044.71;104052;1294;60599;-75
2022/11/14 04:15:30;;;;;;;28.00;19.60;;;;;;;6.21;93.48;101044.66;104469;1292;62023;-75
2022/11/14 04:17:57;;;;;;;30.30;19.40;;;;;;;6.18;93.41;101041.44;104107;1294;60574;-75
2022/11/14 04:20:23;;;;;;;29.60;19.80;;;;;;;6.16;93.44;101042.14;103705;1295;60603;-75
2022/11/14 04:22:50;;;;;;;27.20;18.10;;;;;;;6.13;93.67;101047.98;104117;1284;60559;-75
2022/11/14 04:25:17;;;;;;;31.50;21.20;;;;;;;6.11;93.83;101046.95;103944;1293;60533;-76
2022/11/14 04:27:43;;;;;;;32.50;21.00;;;;;;;6.09;94.03;101047.61;103712;1293;60455;-76
2022/11/14 04:30:10;;;;;;;35.10;22.30;;;;;;;6.08;94.01;101049.09;104149;1300;59399;-76
2022/11/14 04:32:37;;;;;;;33.30;20.40;;;;;;;6.07;94.26;101045.92;104530;1299;60278;-76
2022/11/14 04:35:03;;;;;;;32.50;19.50;;;;;;;6.05;94.39;101049.80;104268;1294;60436;-76
2022/11/14 04:37:30;;;;;;;35.80;22.00;;;;;;;5.98;94.76;101047.58;104039;1286;72479;-77
2022/11/14 04:39:59;;;;;;;35.10;22.00;;;;;;;5.93;94.82;101051.17;104035;1291;60434;-76
2022/11/14 04:42:26;;;;;;;31.40;19.60;;;;;;;5.90;95.00;101047.92;104490;1293;70823;-76
2022/11/14 04:44:52;;;;;;;29.30;18.10;;;;;;;5.88;94.99;101045.95;105745;1292;58128;-76
2022/11/14 04:47:19;;;;;;;32.10;20.80;;;;;;;5.89;95.03;101045.92;105124;1292;58741;-76
2022/11/14 04:49:45;;;;;;;33.80;21.10;;;;;;;5.91;95.25;101045.67;104535;1293;72321;-76
2022/11/14 04:52:12;;;;;;;30.60;19.60;;;;;;;5.96;95.27;101043.05;105601;1284;58267;-75
2022/11/14 04:54:38;;;;;;;31.30;19.80;;;;;;;5.97;95.08;101036.99;104465;1293;72377;-75
2022/11/14 04:57:05;;;;;;;33.80;20.70;;;;;;;6.00;95.23;101032.08;103391;1293;60517;-75
2022/11/14 04:59:31;;;;;;;34.00;20.60;;;;;;;6.03;95.27;101025.89;102970;1293;60445;-75
2022/11/14 05:01:58;;;;;;;33.20;20.70;;;;;;;6.05;95.24;101024.45;103016;1293;60858;-76
2022/11/14 05:04:24;;;;;;;34.10;20.40;;;;;;;6.05;95.21;101025.13;103050;1301;60548;-76
2022/11/14 05:06:51;;;;;;;32.30;21.00;;;;;;;6.07;94.92;101023.21;103208;1292;61690;-75
2022/11/14 05:09:17;;;;;;;34.10;20.50;;;;;;;6.08;94.88;101020.14;103090;1291;60408;-75
2022/11/14 05:11:44;;;;;;;34.80;20.60;;;;;;;6.09;94.97;101016.88;104087;1300;60596;-76
2022/11/14 05:14:10;;;;;;;32.70;20.80;;;;;;;6.10;95.08;101010.89;103317;1284;60519;-75
2022/11/14 05:16:37;;;;;;;31.70;20.10;;;;;;;6.10;94.72;101007.48;103144;1290;60598;-76
2022/11/14 05:19:03;;;;;;;31.40;19.60;;;;;;;6.11;94.68;101008.98;102966;1292;60552;-76
2022/11/14 05:21:30;;;;;;;29.70;19.20;;;;;;;6.10;94.92;101006.63;103053;1294;60853;-76
2022/11/14 05:23:56;;;;;;;36.70;21.60;;;;;;;6.09;95.17;101008.89;103148;1289;59470;-76
2022/11/14 05:26:23;;;;;;;34.20;19.90;;;;;;;6.08;94.73;101007.20;102905;1286;60602;-76
2022/11/14 05:28:49;;;;;;;32.00;20.30;;;;;;;6.07;95.12;101011.49;103891;1299;60625;-75
2022/11/14 05:31:16;;;;;;;29.10;17.90;;;;;;;6.05;94.94;101010.77;103572;1299;61236;-76
2022/11/14 05:33:45;;;;;;;31.60;19.50;;;;;;;5.97;94.93;101008.35;103140;1299;62007;-77
2022/11/14 05:36:14;;;;;;;28.10;17.30;;;;;;;5.90;95.14;101009.26;103482;1300;60541;-78
2022/11/14 05:38:41;;;;;;;32.50;19.40;;;;;;;5.82;95.67;101010.86;103311;1295;72570;-77
2022/11/14 05:41:21;;;;;;;27.80;17.50;;;;;;;5.79;95.82;101010.13;103303;1299;71255;-76
2022/11/14 05:43:48;;;;;;;33.00;20.40;;;;;;;5.77;95.98;101009.91;103196;1293;72599;-77
2022/11/14 05:46:15;;;;;;;32.40;20.50;;;;;;;5.79;95.91;101009.19;103605;1299;59408;-76
2022/11/14 05:48:42;;;;;;;34.00;20.90;;;;;;;5.84;95.90;101010.88;103962;1293;60761;-76
2022/11/14 05:51:11;;;;;;;32.50;20.30;;;;;;;5.88;95.75;101013.35;103135;1302;73771;-76
2022/11/14 05:53:38;;;;;;;35.60;21.30;;;;;;;5.86;95.97;101013.46;103097;1294;70908;-76
2022/11/14 05:56:09;;;;;;;33.10;21.00;;;;;;;5.85;96.08;101013.92;103124;1290;70591;-76
2022/11/14 05:58:36;;;;;;;32.00;17.20;;;;;;;5.76;95.59;101011.36;103308;1296;60632;-78
2022/11/14 06:01:05;;;;;;;28.90;17.90;;;;;;;5.71;95.71;101014.08;103279;1291;61093;-77
2022/11/14 06:03:50;;;;;;;28.30;17.70;;;;;;;5.69;95.92;101010.21;103344;1293;71475;-75
2022/11/14 06:06:19;;;;;;;31.70;19.40;;;;;;;5.70;95.56;101006.84;105522;1286;70498;-77
2022/11/14 06:08:47;;;;;;;29.80;18.10;;;;;;;5.70;95.57;100999.44;104011;1292;72449;-77
2022/11/14 06:11:16;;;;;;;34.40;19.90;;;;;;;5.69;95.48;101000.91;103424;1293;60996;-77
2022/11/14 06:13:43;;;;;;;30.50;19.90;;;;;;;5.70;95.35;100999.94;102768;1297;60585;-76
2022/11/14 06:16:16;;;;;;;30.60;19.00;;;;;;;5.71;95.32;101002.19;103385;1296;72692;-76
2022/11/14 06:18:43;;;;;;;30.90;19.00;;;;;;;5.74;95.27;100998.29;103592;1284;71324;-75
2022/11/14 06:21:12;;;;;;;30.80;18.70;;;;;;;5.75;95.46;100996.73;103103;1301;71611;-76
2022/11/14 06:23:39;;;;;;;30.50;19.10;;;;;;;5.77;95.47;100993.13;104250;1292;61793;-76
2022/11/14 06:26:11;;;;;;;27.10;16.80;;;;;;;5.78;95.35;100992.09;103232;1292;60581;-75
2022/11/14 06:28:38;;;;;;;33.40;19.90;;;;;;;5.73;95.33;100993.19;102880;1288;72514;-75
2022/11/14 06:31:04;;;;;;;31.70;19.90;;;;;;;5.76;95.34;100995.13;103113;1294;281181;-76
2022/11/14 06:33:35;;;;;;;32.10;20.00;;;;;;;5.78;95.37;100992.83;102920;1295;60876;-75
2022/11/14 06:36:05;;;;;;;31.40;19.40;;;;;;;5.77;95.13;100998.02;103346;1284;61777;-75
2022/11/14 06:38:33;;;;;;;27.80;17.40;;;;;;;5.79;95.25;100990.79;103011;1300;60781;-73
2022/11/14 06:41:08;;;;;;;32.60;20.10;;;;;;;5.81;95.35;100982.86;104335;1293;73611;-74
2022/11/14 06:43:36;;;;;;;31.50;19.30;;;;;;;5.85;95.30;100982.30;103570;1293;71021;-75
2022/11/14 06:46:04;;;;;;;31.80;19.40;;;;;;;5.89;95.08;100976.90;103034;1296;72015;-74
2022/11/14 06:48:32;;;;;;;28.90;18.10;;;;;;;5.91;94.96;100980.05;103386;1300;60644;-74
2022/11/14 06:50:59;;;;;;;32.80;19.40;;;;;;;5.92;94.46;100987.29;103130;1300;60443;-74
2022/11/14 06:53:28;;;;;;;28.50;17.10;;;;;;;5.93;94.44;100984.79;104260;1284;74201;-73
2022/11/14 06:56:13;;;;;;;30.50;19.10;;;;;;;5.91;94.44;100983.36;103501;1293;71290;-74
2022/11/14 06:58:42;;;;;;;31.60;19.30;;;;;;;5.92;94.23;100987.88;104038;1295;72416;-74
2022/11/14 07:01:20;;;;;;;30.80;19.00;;;;;;;5.91;94.02;100985.45;103406;1295;60867;-75
2022/11/14 07:03:46;;;;;;;31.10;19.90;;;;;;;5.92;94.18;100979.46;102839;1296;61569;-74
2022/11/14 07:06:22;;;;;;;32.50;20.20;;;;;;;5.92;94.03;100984.34;103435;1293;72407;-75
2022/11/14 07:08:48;;;;;;;32.60;19.30;;;;;;;5.95;93.96;100991.33;103164;1293;70018;-76
2022/11/14 07:11:24;;;;;;;32.20;19.70;;;;;;;5.98;94.10;100990.39;103250;1293;73547;-75
2022/11/14 07:13:53;;;;;;;33.20;19.70;;;;;;;6.02;94.19;100992.66;102782;1296;61622;-74
2022/11/14 07:16:28;;;;;;;34.20;20.50;;;;;;;6.04;94.21;101001.23;104298;1296;60578;-75
2022/11/14 07:18:56;;;;;;;31.20;19.20;;;;;;;6.05;93.90;100998.81;103202;1299;74366;-74
2022/11/14 07:21:23;;;;;;;33.40;20.60;;;;;;;6.08;93.69;100998.38;103137;1285;69641;-74
2022/11/14 07:23:50;;;;;;;31.90;19.50;;;;;;;6.10;93.89;100986.76;102862;1293;72733;-74
2022/11/14 07:26:16;;;;;;;29.20;17.50;;;;;;;6.08;93.51;100985.71;103268;1291;61863;-74
2022/11/14 07:28:44;;;;;;;27.50;16.60;;;;;;;6.03;93.25;100989.19;102993;1293;60576;-75
2022/11/14 07:31:17;;;;;;;32.70;20.60;;;;;;;5.98;93.56;100994.94;103670;1300;73742;-74
2022/11/14 07:33:44;;;;;;;31.70;19.30;;;;;;;5.98;93.83;100987.73;104489;1294;69876;-75
2022/11/14 07:36:12;;;;;;;31.30;19.10;;;;;;;6.01;93.86;100979.34;103634;1297;70389;-75
2022/11/14 07:38:39;;;;;;;32.80;20.40;;;;;;;6.02;93.80;100971.39;104046;1292;60922;-74
2022/11/14 07:41:09;;;;;;;30.10;19.50;;;;;;;6.04;94.07;100971.34;103624;1296;60381;-75
2022/11/14 07:43:35;;;;;;;35.50;20.50;;;;;;;6.02;93.91;100979.64;103654;1294;72667;-75
2022/11/14 07:46:11;;;;;;;28.80;18.00;;;;;;;6.01;93.74;100979.74;103709;1292;70464;-75
2022/11/14 07:48:38;;;;;;;33.80;21.00;;;;;;;5.98;93.82;100989.70;103966;1294;71483;-75
2022/11/14 07:51:06;;;;;;;34.20;20.70;;;;;;;6.00;94.05;100985.42;104506;1294;60598;-75
2022/11/14 07:53:33;;;;;;;26.90;16.60;;;;;;;6.00;94.08;100991.25;103844;1297;59359;-75
2022/11/14 07:56:05;;;;;;;33.60;18.80;;;;;;;5.95;94.22;100995.98;103543;1297;73736;-74
2022/11/14 07:58:34;;;;;;;31.50;19.20;;;;;;;5.91;94.52;100987.76;103905;1292;69729;-74
2022/11/14 08:01:02;;;;;;;31.00;17.10;;;;;;;5.91;94.59;100987.22;103731;1285;71629;-73
2022/11/14 08:03:29;;;;;;;31.50;17.40;;;;;;;5.84;94.84;100981.89;103849;1285;61575;-75
2022/11/14 08:06:04;;;;;;;30.60;18.50;;;;;;;5.83;94.65;100983.45;103941;1292;59315;-75
2022/11/14 08:08:30;;;;;;;26.50;15.40;;;;;;;5.85;94.69;100981.25;103528;1299;74822;-75
2022/11/14 08:10:59;;;;;;;28.90;18.00;;;;;;;5.85;94.50;100982.34;103824;1288;69273;-75
2022/11/14 08:13:26;;;;;;;31.90;18.60;;;;;;;5.89;94.61;100981.79;103312;1294;71112;-74
2022/11/14 08:16:01;;;;;;;30.80;18.60;;;;;;;5.93;94.52;100979.69;102773;1298;60481;-74
2022/11/14 08:18:27;;;;;;;32.20;18.90;;;;;;;5.97;94.30;100984.95;103231;1295;60480;-75
2022/11/14 08:20:56;;;;;;;30.10;18.70;;;;;;;6.02;94.09;100986.09;103138;1286;72239;-75
2022/11/14 08:23:22;;;;;;;32.20;19.30;;;;;;;6.08;94.28;100985.17;103554;1296;70858;-75
2022/11/14 08:25:49;;;;;;;33.40;20.20;;;;;;;6.11;94.05;100978.23;103886;1287;60602;-75
2022/11/14 08:28:16;;;;;;;33.80;20.10;;;;;;;6.16;94.05;100976.50;103005;1301;60621;-75
2022/11/14 08:30:42;;;;;;;31.50;19.50;;;;;;;6.20;93.70;100968.55;103774;1293;60734;-75
2022/11/14 08:33:09;;;;;;;28.50;17.70;;;;;;;6.24;93.28;100972.79;103254;1293;60483;-74
2022/11/14 08:35:35;;;;;;;28.40;17.80;;;;;;;6.20;92.85;100986.29;102792;1292;60654;-74
2022/11/14 08:38:01;;;;;;;28.20;17.60;;;;;;;6.16;92.96;100992.92;103044;1290;60650;-74
2022/11/14 08:40:29;;;;;;;26.00;15.80;;;;;;;6.16;92.80;100985.60;102894;1284;60591;-76
2022/11/14 08:43:00;;;;;;;28.40;17.20;;;;;;;6.14;92.56;100984.02;103260;1293;60572;-74
2022/11/14 08:45:28;;;;;;;29.50;17.50;;;;;;;6.12;92.58;100987.46;103855;1293;71506;-74
2022/11/14 08:47:55;;;;;;;28.90;17.80;;;;;;;6.15;92.73;100984.27;103445;1298;69569;-74
2022/11/14 08:50:21;;;;;;;27.10;16.20;;;;;;;6.18;92.44;100987.02;103384;1301;70149;-74
2022/11/14 08:52:50;;;;;;;29.20;18.10;;;;;;;6.16;92.34;100988.38;103153;1301;60543;-74
2022/11/14 08:55:17;;;;;;;31.50;18.40;;;;;;;6.17;92.15;100983.23;103306;1293;59155;-73
2022/11/14 08:57:44;;;;;;;28.50;17.70;;;;;;;6.17;92.01;100981.98;103012;1286;74656;-75
2022/11/14 09:00:15;;;;;;;30.60;18.20;;;;;;;6.18;92.01;100976.27;103553;1298;71123;-75
2022/11/14 09:02:42;;;;;;;31.50;18.40;;;;;;;6.17;92.37;100968.48;103868;1291;71264;-76
2022/11/14 09:05:09;;;;;;;30.50;17.40;;;;;;;6.19;92.29;100966.87;103807;1288;60957;-75
2022/11/14 09:07:36;;;;;;;25.20;14.50;;;;;;;6.21;92.23;100962.70;103805;1293;60511;-76
2022/11/14 09:10:03;;;;;;;25.60;14.60;;;;;;;6.14;92.02;100969.40;103279;1294;73644;-75
2022/11/14 09:12:30;;;;;;;29.80;17.70;;;;;;;6.16;92.13;100965.73;103167;1298;70826;-76
2022/11/14 09:14:56;;;;;;;27.60;17.00;;;;;;;6.21;92.12;100960.01;103036;1299;70132;-75
2022/11/14 09:17:23;;;;;;;28.30;17.00;;;;;;;6.20;92.16;100962.92;103212;1295;60576;-75
2022/11/14 09:19:49;;;;;;;27.00;15.60;;;;;;;6.22;92.03;100963.59;103320;1286;61822;-75
2022/11/14 09:22:16;;;;;;;26.20;14.70;;;;;;;6.22;92.09;100970.79;103832;1299;59385;-75
2022/11/14 09:24:46;;;;;;;25.80;16.30;;;;;;;6.13;91.36;100977.95;103534;1299;60441;-75
2022/11/14 09:27:13;;;;;;;25.70;14.40;;;;;;;6.04;91.44;100979.83;102759;1293;71212;-75
2022/11/14 09:29:39;;;;;;;25.50;14.40;;;;;;;5.99;91.45;100974.42;103901;1292;62017;-75
2022/11/14 09:32:06;;;;;;;24.00;14.60;;;;;;;5.95;91.59;100970.81;103130;1293;60511;-75
2022/11/14 09:34:32;;;;;;;26.70;15.00;;;;;;;5.88;91.69;100965.38;103518;1294;73718;-75
2022/11/14 09:36:59;;;;;;;25.20;14.00;;;;;;;5.84;91.98;100965.90;103432;1299;60530;-74
2022/11/14 09:39:25;;;;;;;26.40;16.20;;;;;;;5.79;92.07;100965.38;103602;1291;62162;-75
2022/11/14 09:42:18;;;;;;;28.50;16.60;;;;;;;5.79;92.36;100959.91;103974;1293;60602;-74
2022/11/14 09:44:52;;;;;;;25.50;16.40;;;;;;;5.82;92.40;100959.45;103029;1300;60411;-74
2022/11/14 09:47:27;;;;;;;26.10;14.10;;;;;;;5.84;92.27;100946.61;102704;1300;72614;-74
2022/11/14 09:50:01;;;;;;;30.20;18.20;;;;;;;5.87;92.11;100936.05;103057;1298;69556;-74
2022/11/14 09:52:37;;;;;;;23.60;14.80;;;;;;;5.95;92.24;100919.11;102945;1300;71146;-74
2022/11/14 09:55:19;;;;;;;25.60;16.40;;;;;;;6.06;91.94;100910.42;103754;1290;60560;-75
2022/11/14 09:57:46;;;;;;;26.00;16.50;;;;;;;6.15;91.23;100905.27;104510;1294;59899;-74
2022/11/14 10:00:14;;;;;;;26.50;16.30;;;;;;;6.24;90.93;100908.84;103026;1296;72884;-75
2022/11/14 10:02:53;;;;;;;23.70;14.80;;;;;;;6.33;90.79;100908.32;103237;1299;69578;-75
2022/11/14 10:06:08;;;;;;;27.50;16.80;;;;;;;6.40;90.31;100897.14;102718;1294;71487;-75
2022/11/14 10:08:51;;;;;;;27.30;17.70;;;;;;;6.56;90.45;100886.86;102954;1305;60534;-75
2022/11/14 10:12:02;;;;;;;24.30;15.70;;;;;;;6.65;89.60;100880.60;103070;1294;60489;-75
2022/11/14 10:15:00;;;;;;;27.10;17.00;;;;;;;6.67;89.01;100882.16;103047;1300;74226;-75
2022/11/14 10:17:31;;;;;;;27.40;18.10;;;;;;;6.66;88.60;100891.91;103824;1292;68829;-76
2022/11/14 10:20:07;;;;;;;28.20;18.30;;;;;;;6.69;88.61;100888.92;103449;1300;72917;-75
2022/11/14 10:22:58;;;;;;;29.10;19.70;;;;;;;6.73;88.60;100887.72;103561;1300;61074;-76
2022/11/14 10:25:49;;;;;;;26.70;16.80;;;;;;;6.80;88.69;100886.70;103374;1293;60415;-75
2022/11/14 10:28:35;;;;;;;27.80;17.50;;;;;;;6.78;87.91;100885.82;103341;1300;73796;-75
2022/11/14 10:31:18;;;;;;;28.80;19.50;;;;;;;6.74;88.31;100887.58;103368;1291;70044;-76
2022/11/14 10:34:25;;;;;;;33.80;21.70;;;;;;;6.80;88.36;100885.83;103246;1296;73339;-76
2022/11/14 10:37:19;;;;;;;30.10;19.40;;;;;;;6.82;88.28;100899.02;103975;1293;60370;-75
2022/11/14 10:39:50;;;;;;;31.70;20.30;;;;;;;6.84;88.25;100900.05;103281;1293;60443;-76
2022/11/14 10:42:24;;;;;;;30.90;17.80;;;;;;;6.79;87.87;100899.14;103281;1295;73632;-77
2022/11/14 10:45:05;;;;;;;28.60;19.50;;;;;;;6.69;87.65;100896.36;103284;1298;69112;-76
2022/11/14 10:47:40;;;;;;;34.80;21.80;;;;;;;6.70;88.33;100887.82;103006;1294;70532;-75
2022/11/14 10:50:39;;;;;;;33.60;22.10;;;;;;;6.77;88.80;100889.13;103005;1293;61222;-74
2022/11/14 10:53:24;;;;;;;32.70;21.80;;;;;;;6.83;88.75;100883.41;103563;1300;60492;-74
2022/11/14 10:55:53;;;;;;;30.50;19.00;;;;;;;6.87;88.21;100888.98;103690;1298;73179;-75
2022/11/14 10:58:35;;;;;;;30.10;19.00;;;;;;;6.94;88.12;100881.19;103236;1291;68942;-75
2022/11/14 11:01:36;;;;;;;29.70;18.00;;;;;;;6.95;87.87;100889.65;103075;1294;72637;-74
2022/11/14 11:04:19;;;;;;;32.50;20.30;;;;;;;6.96;87.64;100898.76;103172;1300;61299;-74
2022/11/14 11:06:47;;;;;;;35.50;22.30;;;;;;;7.00;87.70;100890.67;102855;1284;60496;-75
2022/11/14 11:12:03;;;;;;;30.50;20.60;;;;;;;7.16;87.77;100871.10;103451;1299;72773;-75
2022/11/14 11:14:30;;;;;;;31.70;20.80;;;;;;;7.18;86.78;100875.86;103508;1293;71012;-75
2022/11/14 11:17:19;;;;;;;30.70;20.20;;;;;;;7.20;86.62;100879.52;102898;1293;61597;-75
2022/11/14 11:19:47;;;;;;;32.30;21.20;;;;;;;7.17;86.17;100876.70;103318;1296;61475;-73
2022/11/14 11:22:26;;;;;;;32.00;21.10;;;;;;;7.21;86.81;100867.81;103247;1294;72325;-75
2022/11/14 11:24:52;;;;;;;33.70;22.50;;;;;;;7.27;86.76;100867.42;103232;1299;69941;-74